sensor_id;sensor_type;location;lat;lon;timestamp;P1;durP1;ratioP1;P2;durP2;ratioP2
67156;SDS011;54086;50.126;8.710;2023-05-14T00:00:51;10.60;;;6.40;;
67156;SDS011;54086;50.126;8.710;2023-05-14T00:03:17;10.10;;;6.13;;
67156;SDS011;54086;50.126;8.710;2023-05-14T00:05:42;12.83;;;6.50;;
67156;SDS011;54086;50.126;8.710;2023-05-14T00:08:07;9.73;;;6.20;;
67156;SDS011;54086;50.126;8.710;2023-05-14T00:10:33;10.43;;;6.17;;
67156;SDS011;54086;50.126;8.710;2023-05-14T00:12:58;10.53;;;6.23;;
67156;SDS011;54086;50.126;8.710;2023-05-14T00:15:24;10.13;;;6.50;;
67156;SDS011;54086;50.126;8.710;2023-05-14T00:17:49;9.43;;;6.27;;
67156;SDS011;54086;50.126;8.710;2023-05-14T00:20:15;9.60;;;6.10;;
67156;SDS011;54086;50.126;8.710;2023-05-14T00:22:40;10.50;;;6.40;;
67156;SDS011;54086;50.126;8.710;2023-05-14T00:25:06;10.53;;;5.80;;
67156;SDS011;54086;50.126;8.710;2023-05-14T00:27:32;10.05;;;5.68;;
67156;SDS011;54086;50.126;8.710;2023-05-14T00:29:58;8.15;;;5.30;;
67156;SDS011;54086;50.126;8.710;2023-05-14T00:32:23;10.57;;;5.90;;
67156;SDS011;54086;50.126;8.710;2023-05-14T00:34:49;8.50;;;5.20;;
67156;SDS011;54086;50.126;8.710;2023-05-14T00:37:14;9.17;;;5.57;;
67156;SDS011;54086;50.126;8.710;2023-05-14T00:39:40;10.07;;;5.50;;
67156;SDS011;54086;50.126;8.710;2023-05-14T00:42:05;10.67;;;5.87;;
67156;SDS011;54086;50.126;8.710;2023-05-14T00:44:30;9.97;;;6.50;;
67156;SDS011;54086;50.126;8.710;2023-05-14T00:46:57;9.30;;;5.77;;
67156;SDS011;54086;50.126;8.710;2023-05-14T00:49:23;10.68;;;5.95;;
67156;SDS011;54086;50.126;8.710;2023-05-14T00:51:49;11.60;;;5.72;;
67156;SDS011;54086;50.126;8.710;2023-05-14T00:54:15;10.83;;;6.63;;
67156;SDS011;54086;50.126;8.710;2023-05-14T00:56:44;11.00;;;5.87;;
67156;SDS011;54086;50.126;8.710;2023-05-14T00:59:10;9.27;;;6.10;;
67156;SDS011;54086;50.126;8.710;2023-05-14T01:01:36;10.88;;;6.60;;
67156;SDS011;54086;50.126;8.710;2023-05-14T01:04:02;9.50;;;6.10;;
67156;SDS011;54086;50.126;8.710;2023-05-14T01:06:33;9.73;;;6.38;;
67156;SDS011;54086;50.126;8.710;2023-05-14T01:14:33;12.63;;;5.80;;
67156;SDS011;54086;50.126;8.710;2023-05-14T01:17:18;11.70;;;5.75;;
67156;SDS011;54086;50.126;8.710;2023-05-14T01:19:46;10.80;;;5.85;;
67156;SDS011;54086;50.126;8.710;2023-05-14T01:22:12;11.40;;;5.93;;
67156;SDS011;54086;50.126;8.710;2023-05-14T01:24:38;10.40;;;5.53;;
67156;SDS011;54086;50.126;8.710;2023-05-14T01:29:37;9.68;;;5.82;;
67156;SDS011;54086;50.126;8.710;2023-05-14T01:32:06;11.23;;;6.18;;
67156;SDS011;54086;50.126;8.710;2023-05-14T01:34:32;10.23;;;5.77;;
67156;SDS011;54086;50.126;8.710;2023-05-14T01:37:00;10.13;;;5.70;;
67156;SDS011;54086;50.126;8.710;2023-05-14T01:39:26;10.00;;;5.85;;
67156;SDS011;54086;50.126;8.710;2023-05-14T01:41:53;9.77;;;6.15;;
67156;SDS011;54086;50.126;8.710;2023-05-14T01:44:18;9.82;;;6.07;;
67156;SDS011;54086;50.126;8.710;2023-05-14T01:46:45;10.83;;;6.10;;
67156;SDS011;54086;50.126;8.710;2023-05-14T01:49:10;9.73;;;6.07;;
67156;SDS011;54086;50.126;8.710;2023-05-14T01:51:36;9.97;;;6.07;;
67156;SDS011;54086;50.126;8.710;2023-05-14T01:54:01;10.93;;;6.70;;
67156;SDS011;54086;50.126;8.710;2023-05-14T01:56:27;9.32;;;6.07;;
67156;SDS011;54086;50.126;8.710;2023-05-14T01:58:52;10.90;;;6.07;;
67156;SDS011;54086;50.126;8.710;2023-05-14T02:01:19;11.50;;;6.88;;
67156;SDS011;54086;50.126;8.710;2023-05-14T02:03:45;10.37;;;6.40;;
67156;SDS011;54086;50.126;8.710;2023-05-14T02:06:10;12.33;;;6.57;;
67156;SDS011;54086;50.126;8.710;2023-05-14T02:08:35;10.60;;;6.17;;
67156;SDS011;54086;50.126;8.710;2023-05-14T02:11:01;11.80;;;6.20;;
67156;SDS011;54086;50.126;8.710;2023-05-14T02:13:26;9.87;;;5.93;;
67156;SDS011;54086;50.126;8.710;2023-05-14T02:15:52;11.90;;;6.53;;
67156;SDS011;54086;50.126;8.710;2023-05-14T02:18:17;10.07;;;6.20;;
67156;SDS011;54086;50.126;8.710;2023-05-14T02:20:42;11.82;;;6.40;;
67156;SDS011;54086;50.126;8.710;2023-05-14T02:23:08;10.90;;;6.13;;
67156;SDS011;54086;50.126;8.710;2023-05-14T02:25:33;10.73;;;6.20;;
67156;SDS011;54086;50.126;8.710;2023-05-14T02:27:59;11.30;;;6.40;;
67156;SDS011;54086;50.126;8.710;2023-05-14T02:30:24;11.67;;;6.07;;
67156;SDS011;54086;50.126;8.710;2023-05-14T02:32:50;10.83;;;6.60;;
67156;SDS011;54086;50.126;8.710;2023-05-14T02:35:15;9.90;;;6.30;;
67156;SDS011;54086;50.126;8.710;2023-05-14T02:37:41;11.55;;;6.45;;
67156;SDS011;54086;50.126;8.710;2023-05-14T02:40:06;10.17;;;6.43;;
67156;SDS011;54086;50.126;8.710;2023-05-14T02:42:33;12.07;;;6.75;;
67156;SDS011;54086;50.126;8.710;2023-05-14T02:44:58;10.73;;;6.17;;
67156;SDS011;54086;50.126;8.710;2023-05-14T02:47:23;11.13;;;6.63;;
67156;SDS011;54086;50.126;8.710;2023-05-14T02:49:49;10.77;;;6.30;;
67156;SDS011;54086;50.126;8.710;2023-05-14T02:52:14;11.43;;;7.13;;
67156;SDS011;54086;50.126;8.710;2023-05-14T02:54:40;12.17;;;6.50;;
67156;SDS011;54086;50.126;8.710;2023-05-14T02:57:05;10.47;;;6.40;;
67156;SDS011;54086;50.126;8.710;2023-05-14T02:59:30;10.00;;;6.40;;
67156;SDS011;54086;50.126;8.710;2023-05-14T03:01:56;10.73;;;6.80;;
67156;SDS011;54086;50.126;8.710;2023-05-14T03:04:22;10.70;;;7.10;;
67156;SDS011;54086;50.126;8.710;2023-05-14T03:06:47;10.52;;;6.65;;
67156;SDS011;54086;50.126;8.710;2023-05-14T03:09:13;10.03;;;6.57;;
67156;SDS011;54086;50.126;8.710;2023-05-14T03:11:38;10.90;;;7.03;;
67156;SDS011;54086;50.126;8.710;2023-05-14T03:14:04;9.98;;;6.50;;
67156;SDS011;54086;50.126;8.710;2023-05-14T03:16:29;10.83;;;6.70;;
67156;SDS011;54086;50.126;8.710;2023-05-14T03:18:54;11.03;;;7.00;;
67156;SDS011;54086;50.126;8.710;2023-05-14T03:21:20;11.50;;;6.33;;
67156;SDS011;54086;50.126;8.710;2023-05-14T03:23:46;11.77;;;6.73;;
67156;SDS011;54086;50.126;8.710;2023-05-14T03:26:11;12.73;;;6.80;;
67156;SDS011;54086;50.126;8.710;2023-05-14T03:28:37;12.63;;;6.90;;
67156;SDS011;54086;50.126;8.710;2023-05-14T03:31:02;12.07;;;6.38;;
67156;SDS011;54086;50.126;8.710;2023-05-14T03:33:27;11.23;;;7.03;;
67156;SDS011;54086;50.126;8.710;2023-05-14T03:35:53;11.27;;;7.03;;
67156;SDS011;54086;50.126;8.710;2023-05-14T03:38:18;10.35;;;6.82;;
67156;SDS011;54086;50.126;8.710;2023-05-14T03:40:44;9.67;;;6.53;;
67156;SDS011;54086;50.126;8.710;2023-05-14T03:43:09;13.73;;;7.27;;
67156;SDS011;54086;50.126;8.710;2023-05-14T03:45:35;11.45;;;6.85;;
67156;SDS011;54086;50.126;8.710;2023-05-14T03:48:01;13.27;;;7.00;;
67156;SDS011;54086;50.126;8.710;2023-05-14T03:50:26;11.23;;;6.93;;
67156;SDS011;54086;50.126;8.710;2023-05-14T03:52:52;14.00;;;7.40;;
67156;SDS011;54086;50.126;8.710;2023-05-14T03:55:18;10.73;;;7.03;;
67156;SDS011;54086;50.126;8.710;2023-05-14T03:57:44;12.15;;;6.68;;
67156;SDS011;54086;50.126;8.710;2023-05-14T04:00:09;10.18;;;6.93;;
67156;SDS011;54086;50.126;8.710;2023-05-14T04:02:35;11.63;;;6.97;;
67156;SDS011;54086;50.126;8.710;2023-05-14T04:05:01;12.07;;;7.00;;
67156;SDS011;54086;50.126;8.710;2023-05-14T04:07:26;12.53;;;7.03;;
67156;SDS011;54086;50.126;8.710;2023-05-14T04:09:52;11.20;;;6.87;;
67156;SDS011;54086;50.126;8.710;2023-05-14T04:12:17;11.33;;;7.00;;
67156;SDS011;54086;50.126;8.710;2023-05-14T04:14:42;12.50;;;6.90;;
67156;SDS011;54086;50.126;8.710;2023-05-14T04:17:08;10.43;;;6.85;;
67156;SDS011;54086;50.126;8.710;2023-05-14T04:19:33;10.03;;;6.43;;
67156;SDS011;54086;50.126;8.710;2023-05-14T04:21:59;11.63;;;7.40;;
67156;SDS011;54086;50.126;8.710;2023-05-14T04:24:24;9.87;;;6.53;;
67156;SDS011;54086;50.126;8.710;2023-05-14T04:26:49;12.13;;;6.90;;
67156;SDS011;54086;50.126;8.710;2023-05-14T04:29:15;11.07;;;6.70;;
67156;SDS011;54086;50.126;8.710;2023-05-14T04:31:40;11.63;;;6.83;;
67156;SDS011;54086;50.126;8.710;2023-05-14T04:34:07;9.73;;;6.97;;
67156;SDS011;54086;50.126;8.710;2023-05-14T04:36:32;10.53;;;7.23;;
67156;SDS011;54086;50.126;8.710;2023-05-14T04:38:57;12.77;;;7.43;;
67156;SDS011;54086;50.126;8.710;2023-05-14T04:41:23;11.38;;;7.60;;
67156;SDS011;54086;50.126;8.710;2023-05-14T04:43:49;11.90;;;7.30;;
67156;SDS011;54086;50.126;8.710;2023-05-14T04:46:14;11.95;;;6.82;;
67156;SDS011;54086;50.126;8.710;2023-05-14T04:48:40;11.83;;;7.53;;
67156;SDS011;54086;50.126;8.710;2023-05-14T04:51:06;10.10;;;6.63;;
67156;SDS011;54086;50.126;8.710;2023-05-14T04:53:31;10.70;;;6.90;;
67156;SDS011;54086;50.126;8.710;2023-05-14T04:55:57;11.47;;;6.43;;
67156;SDS011;54086;50.126;8.710;2023-05-14T04:58:23;11.57;;;7.15;;
67156;SDS011;54086;50.126;8.710;2023-05-14T05:00:49;10.70;;;6.77;;
67156;SDS011;54086;50.126;8.710;2023-05-14T05:03:14;17.67;;;6.72;;
67156;SDS011;54086;50.126;8.710;2023-05-14T05:05:39;14.67;;;8.87;;
67156;SDS011;54086;50.126;8.710;2023-05-14T05:08:05;10.87;;;6.50;;
67156;SDS011;54086;50.126;8.710;2023-05-14T05:10:30;11.75;;;6.85;;
67156;SDS011;54086;50.126;8.710;2023-05-14T05:12:56;11.23;;;6.80;;
67156;SDS011;54086;50.126;8.710;2023-05-14T05:15:21;11.40;;;6.83;;
67156;SDS011;54086;50.126;8.710;2023-05-14T05:17:47;10.30;;;6.87;;
67156;SDS011;54086;50.126;8.710;2023-05-14T05:20:12;13.17;;;6.57;;
67156;SDS011;54086;50.126;8.710;2023-05-14T05:22:37;10.50;;;6.20;;
67156;SDS011;54086;50.126;8.710;2023-05-14T05:25:03;9.77;;;6.03;;
67156;SDS011;54086;50.126;8.710;2023-05-14T05:27:32;9.85;;;6.32;;
67156;SDS011;54086;50.126;8.710;2023-05-14T05:29:57;10.30;;;6.50;;
67156;SDS011;54086;50.126;8.710;2023-05-14T05:32:24;10.02;;;6.20;;
67156;SDS011;54086;50.126;8.710;2023-05-14T05:34:50;11.00;;;6.70;;
67156;SDS011;54086;50.126;8.710;2023-05-14T05:37:16;11.55;;;6.78;;
67156;SDS011;54086;50.126;8.710;2023-05-14T05:39:41;10.07;;;6.00;;
67156;SDS011;54086;50.126;8.710;2023-05-14T05:42:07;10.50;;;6.82;;
67156;SDS011;54086;50.126;8.710;2023-05-14T05:44:32;10.27;;;6.07;;
67156;SDS011;54086;50.126;8.710;2023-05-14T05:46:58;10.97;;;6.07;;
67156;SDS011;54086;50.126;8.710;2023-05-14T05:49:24;11.25;;;6.00;;
67156;SDS011;54086;50.126;8.710;2023-05-14T05:51:50;9.98;;;6.40;;
67156;SDS011;54086;50.126;8.710;2023-05-14T05:54:15;10.77;;;6.07;;
67156;SDS011;54086;50.126;8.710;2023-05-14T05:56:41;10.03;;;5.93;;
67156;SDS011;54086;50.126;8.710;2023-05-14T05:59:06;10.20;;;6.17;;
67156;SDS011;54086;50.126;8.710;2023-05-14T06:01:32;10.05;;;5.65;;
67156;SDS011;54086;50.126;8.710;2023-05-14T06:03:57;10.47;;;5.73;;
67156;SDS011;54086;50.126;8.710;2023-05-14T06:06:23;10.82;;;6.28;;
67156;SDS011;54086;50.126;8.710;2023-05-14T06:08:49;11.15;;;6.22;;
67156;SDS011;54086;50.126;8.710;2023-05-14T06:11:15;8.93;;;5.23;;
67156;SDS011;54086;50.126;8.710;2023-05-14T06:13:40;9.57;;;5.93;;
67156;SDS011;54086;50.126;8.710;2023-05-14T06:16:06;9.53;;;5.60;;
67156;SDS011;54086;50.126;8.710;2023-05-14T06:18:31;11.60;;;5.77;;
67156;SDS011;54086;50.126;8.710;2023-05-14T06:20:57;10.27;;;6.37;;
67156;SDS011;54086;50.126;8.710;2023-05-14T06:23:24;9.48;;;5.68;;
67156;SDS011;54086;50.126;8.710;2023-05-14T06:25:50;11.57;;;5.70;;
67156;SDS011;54086;50.126;8.710;2023-05-14T06:28:16;9.95;;;5.57;;
67156;SDS011;54086;50.126;8.710;2023-05-14T06:30:41;9.83;;;5.70;;
67156;SDS011;54086;50.126;8.710;2023-05-14T06:33:07;10.53;;;5.50;;
67156;SDS011;54086;50.126;8.710;2023-05-14T06:35:32;9.43;;;5.22;;
67156;SDS011;54086;50.126;8.710;2023-05-14T06:37:58;12.60;;;5.20;;
67156;SDS011;54086;50.126;8.710;2023-05-14T06:40:24;9.88;;;5.93;;
67156;SDS011;54086;50.126;8.710;2023-05-14T06:42:49;9.10;;;5.27;;
67156;SDS011;54086;50.126;8.710;2023-05-14T06:45:14;9.43;;;5.03;;
67156;SDS011;54086;50.126;8.710;2023-05-14T06:47:40;9.10;;;4.80;;
67156;SDS011;54086;50.126;8.710;2023-05-14T06:50:05;9.93;;;4.75;;
67156;SDS011;54086;50.126;8.710;2023-05-14T06:52:31;9.03;;;5.27;;
67156;SDS011;54086;50.126;8.710;2023-05-14T06:54:57;7.85;;;5.03;;
67156;SDS011;54086;50.126;8.710;2023-05-14T06:57:23;10.93;;;5.17;;
67156;SDS011;54086;50.126;8.710;2023-05-14T06:59:48;8.18;;;4.68;;
67156;SDS011;54086;50.126;8.710;2023-05-14T07:02:13;8.97;;;4.60;;
67156;SDS011;54086;50.126;8.710;2023-05-14T07:04:39;8.03;;;4.90;;
67156;SDS011;54086;50.126;8.710;2023-05-14T07:07:04;9.17;;;5.17;;
67156;SDS011;54086;50.126;8.710;2023-05-14T07:09:31;7.82;;;4.43;;
67156;SDS011;54086;50.126;8.710;2023-05-14T07:11:57;8.37;;;5.07;;
67156;SDS011;54086;50.126;8.710;2023-05-14T07:14:22;8.48;;;4.68;;
67156;SDS011;54086;50.126;8.710;2023-05-14T07:16:48;9.83;;;5.40;;
67156;SDS011;54086;50.126;8.710;2023-05-14T07:19:13;9.67;;;5.07;;
67156;SDS011;54086;50.126;8.710;2023-05-14T07:21:38;8.70;;;4.73;;
67156;SDS011;54086;50.126;8.710;2023-05-14T07:24:04;8.52;;;4.80;;
67156;SDS011;54086;50.126;8.710;2023-05-14T07:26:30;7.90;;;4.63;;
67156;SDS011;54086;50.126;8.710;2023-05-14T07:28:55;9.48;;;5.15;;
67156;SDS011;54086;50.126;8.710;2023-05-14T07:31:21;7.87;;;4.53;;
67156;SDS011;54086;50.126;8.710;2023-05-14T07:33:47;8.77;;;4.97;;
67156;SDS011;54086;50.126;8.710;2023-05-14T07:36:13;8.00;;;4.43;;
67156;SDS011;54086;50.126;8.710;2023-05-14T07:38:38;7.93;;;4.60;;
67156;SDS011;54086;50.126;8.710;2023-05-14T07:41:04;8.52;;;5.25;;
67156;SDS011;54086;50.126;8.710;2023-05-14T07:43:29;8.57;;;5.37;;
67156;SDS011;54086;50.126;8.710;2023-05-14T07:45:55;9.60;;;5.30;;
67156;SDS011;54086;50.126;8.710;2023-05-14T07:48:20;8.50;;;5.27;;
67156;SDS011;54086;50.126;8.710;2023-05-14T07:50:47;9.00;;;5.13;;
67156;SDS011;54086;50.126;8.710;2023-05-14T07:53:12;9.63;;;5.05;;
67156;SDS011;54086;50.126;8.710;2023-05-14T07:55:38;9.17;;;4.83;;
67156;SDS011;54086;50.126;8.710;2023-05-14T07:58:04;8.60;;;5.20;;
67156;SDS011;54086;50.126;8.710;2023-05-14T08:00:29;7.37;;;4.50;;
67156;SDS011;54086;50.126;8.710;2023-05-14T08:02:54;7.53;;;4.30;;
67156;SDS011;54086;50.126;8.710;2023-05-14T08:05:20;7.77;;;4.27;;
67156;SDS011;54086;50.126;8.710;2023-05-14T08:07:45;9.57;;;4.90;;
67156;SDS011;54086;50.126;8.710;2023-05-14T08:10:11;8.70;;;4.10;;
67156;SDS011;54086;50.126;8.710;2023-05-14T08:12:38;8.38;;;4.82;;
67156;SDS011;54086;50.126;8.710;2023-05-14T08:15:04;9.07;;;4.33;;
67156;SDS011;54086;50.126;8.710;2023-05-14T08:17:31;8.00;;;3.95;;
67156;SDS011;54086;50.126;8.710;2023-05-14T08:19:57;7.23;;;3.97;;
67156;SDS011;54086;50.126;8.710;2023-05-14T08:22:23;8.10;;;3.90;;
67156;SDS011;54086;50.126;8.710;2023-05-14T08:24:49;8.37;;;4.80;;
67156;SDS011;54086;50.126;8.710;2023-05-14T08:27:17;8.52;;;4.88;;
67156;SDS011;54086;50.126;8.710;2023-05-14T08:29:43;6.60;;;3.53;;
67156;SDS011;54086;50.126;8.710;2023-05-14T08:32:08;7.00;;;3.57;;
67156;SDS011;54086;50.126;8.710;2023-05-14T08:34:34;6.85;;;3.17;;
67156;SDS011;54086;50.126;8.710;2023-05-14T08:37:00;6.87;;;3.30;;
67156;SDS011;54086;50.126;8.710;2023-05-14T08:39:26;6.95;;;3.50;;
67156;SDS011;54086;50.126;8.710;2023-05-14T08:41:51;6.77;;;3.30;;
67156;SDS011;54086;50.126;8.710;2023-05-14T08:44:18;7.15;;;3.53;;
67156;SDS011;54086;50.126;8.710;2023-05-14T08:46:44;6.88;;;3.42;;
67156;SDS011;54086;50.126;8.710;2023-05-14T08:52:08;7.17;;;3.63;;
67156;SDS011;54086;50.126;8.710;2023-05-14T08:54:34;9.43;;;3.95;;
67156;SDS011;54086;50.126;8.710;2023-05-14T08:57:01;6.90;;;3.65;;
67156;SDS011;54086;50.126;8.710;2023-05-14T08:59:27;8.70;;;3.77;;
67156;SDS011;54086;50.126;8.710;2023-05-14T09:01:53;8.75;;;4.13;;
67156;SDS011;54086;50.126;8.710;2023-05-14T09:04:22;7.97;;;3.55;;
67156;SDS011;54086;50.126;8.710;2023-05-14T09:06:48;6.53;;;3.25;;
67156;SDS011;54086;50.126;8.710;2023-05-14T09:09:15;8.17;;;3.73;;
67156;SDS011;54086;50.126;8.710;2023-05-14T09:11:41;7.82;;;3.20;;
67156;SDS011;54086;50.126;8.710;2023-05-14T09:14:06;7.15;;;3.67;;
67156;SDS011;54086;50.126;8.710;2023-05-14T09:16:32;6.93;;;3.77;;
67156;SDS011;54086;50.126;8.710;2023-05-14T09:19:00;7.55;;;3.92;;
67156;SDS011;54086;50.126;8.710;2023-05-14T09:21:28;8.25;;;3.65;;
67156;SDS011;54086;50.126;8.710;2023-05-14T09:23:55;6.47;;;3.22;;
67156;SDS011;54086;50.126;8.710;2023-05-14T09:26:22;7.17;;;3.07;;
67156;SDS011;54086;50.126;8.710;2023-05-14T09:28:55;7.88;;;3.80;;
67156;SDS011;54086;50.126;8.710;2023-05-14T09:31:25;6.40;;;3.40;;
67156;SDS011;54086;50.126;8.710;2023-05-14T09:33:51;7.35;;;3.35;;
67156;SDS011;54086;50.126;8.710;2023-05-14T09:36:17;6.33;;;3.00;;
67156;SDS011;54086;50.126;8.710;2023-05-14T09:38:43;7.65;;;3.33;;
67156;SDS011;54086;50.126;8.710;2023-05-14T09:41:09;6.40;;;3.47;;
67156;SDS011;54086;50.126;8.710;2023-05-14T09:43:34;8.15;;;3.38;;
67156;SDS011;54086;50.126;8.710;2023-05-14T09:46:00;6.70;;;3.20;;
67156;SDS011;54086;50.126;8.710;2023-05-14T09:48:26;6.40;;;2.90;;
67156;SDS011;54086;50.126;8.710;2023-05-14T09:50:54;6.17;;;2.97;;
67156;SDS011;54086;50.126;8.710;2023-05-14T09:53:20;8.75;;;2.78;;
67156;SDS011;54086;50.126;8.710;2023-05-14T09:55:48;6.15;;;2.85;;
67156;SDS011;54086;50.126;8.710;2023-05-14T09:58:15;6.45;;;2.88;;
67156;SDS011;54086;50.126;8.710;2023-05-14T10:00:44;5.93;;;2.90;;
67156;SDS011;54086;50.126;8.710;2023-05-14T10:03:12;5.70;;;2.63;;
67156;SDS011;54086;50.126;8.710;2023-05-14T10:05:41;6.00;;;2.88;;
67156;SDS011;54086;50.126;8.710;2023-05-14T10:08:10;5.90;;;2.50;;
67156;SDS011;54086;50.126;8.710;2023-05-14T10:10:39;6.07;;;2.78;;
67156;SDS011;54086;50.126;8.710;2023-05-14T10:13:13;5.88;;;2.58;;
67156;SDS011;54086;50.126;8.710;2023-05-14T10:15:47;5.72;;;2.70;;
67156;SDS011;54086;50.126;8.710;2023-05-14T10:18:22;5.87;;;2.70;;
67156;SDS011;54086;50.126;8.710;2023-05-14T10:20:54;6.35;;;2.95;;
67156;SDS011;54086;50.126;8.710;2023-05-14T10:23:28;5.93;;;2.75;;
67156;SDS011;54086;50.126;8.710;2023-05-14T10:25:54;6.63;;;3.22;;
67156;SDS011;54086;50.126;8.710;2023-05-14T10:28:21;6.05;;;3.08;;
67156;SDS011;54086;50.126;8.710;2023-05-14T10:30:50;5.37;;;2.73;;
67156;SDS011;54086;50.126;8.710;2023-05-14T10:33:16;6.15;;;3.00;;
67156;SDS011;54086;50.126;8.710;2023-05-14T10:38:31;7.07;;;3.20;;
67156;SDS011;54086;50.126;8.710;2023-05-14T10:41:20;5.72;;;2.95;;
67156;SDS011;54086;50.126;8.710;2023-05-14T10:43:45;5.75;;;2.80;;
67156;SDS011;54086;50.126;8.710;2023-05-14T10:46:11;7.35;;;3.45;;
67156;SDS011;54086;50.126;8.710;2023-05-14T10:48:40;7.43;;;3.27;;
67156;SDS011;54086;50.126;8.710;2023-05-14T10:51:10;7.25;;;3.10;;
67156;SDS011;54086;50.126;8.710;2023-05-14T10:53:40;6.63;;;3.17;;
67156;SDS011;54086;50.126;8.710;2023-05-14T10:56:09;7.43;;;3.25;;
67156;SDS011;54086;50.126;8.710;2023-05-14T10:58:37;6.20;;;2.95;;
67156;SDS011;54086;50.126;8.710;2023-05-14T11:01:08;5.97;;;2.77;;
67156;SDS011;54086;50.126;8.710;2023-05-14T11:03:44;8.00;;;3.40;;
67156;SDS011;54086;50.126;8.710;2023-05-14T11:06:11;7.07;;;3.05;;
67156;SDS011;54086;50.126;8.710;2023-05-14T11:08:41;7.20;;;3.78;;
67156;SDS011;54086;50.126;8.710;2023-05-14T11:11:07;6.63;;;3.17;;
67156;SDS011;54086;50.126;8.710;2023-05-14T11:13:33;6.82;;;3.20;;
67156;SDS011;54086;50.126;8.710;2023-05-14T11:16:01;6.03;;;2.85;;
67156;SDS011;54086;50.126;8.710;2023-05-14T11:20:56;6.90;;;3.30;;
67156;SDS011;54086;50.126;8.710;2023-05-14T11:23:25;7.22;;;3.50;;
67156;SDS011;54086;50.126;8.710;2023-05-14T11:25:51;6.97;;;3.38;;
67156;SDS011;54086;50.126;8.710;2023-05-14T11:28:21;6.38;;;2.97;;
67156;SDS011;54086;50.126;8.710;2023-05-14T11:30:48;7.20;;;3.50;;
67156;SDS011;54086;50.126;8.710;2023-05-14T11:33:15;6.83;;;3.10;;
67156;SDS011;54086;50.126;8.710;2023-05-14T11:35:40;6.18;;;2.88;;
67156;SDS011;54086;50.126;8.710;2023-05-14T11:38:12;6.57;;;3.45;;
67156;SDS011;54086;50.126;8.710;2023-05-14T11:40:42;6.15;;;3.00;;
67156;SDS011;54086;50.126;8.710;2023-05-14T11:43:15;7.78;;;3.20;;
67156;SDS011;54086;50.126;8.710;2023-05-14T11:45:41;6.57;;;3.27;;
67156;SDS011;54086;50.126;8.710;2023-05-14T11:48:12;6.77;;;3.10;;
67156;SDS011;54086;50.126;8.710;2023-05-14T11:50:46;6.07;;;3.10;;
67156;SDS011;54086;50.126;8.710;2023-05-14T11:53:23;6.10;;;2.90;;
67156;SDS011;54086;50.126;8.710;2023-05-14T11:55:49;5.90;;;3.25;;
67156;SDS011;54086;50.126;8.710;2023-05-14T11:58:20;5.53;;;2.77;;
67156;SDS011;54086;50.126;8.710;2023-05-14T12:00:48;5.78;;;2.78;;
67156;SDS011;54086;50.126;8.710;2023-05-14T12:03:14;7.80;;;3.55;;
67156;SDS011;54086;50.126;8.710;2023-05-14T12:05:59;6.70;;;2.75;;
67156;SDS011;54086;50.126;8.710;2023-05-14T12:08:30;5.68;;;2.45;;
67156;SDS011;54086;50.126;8.710;2023-05-14T12:10:57;6.43;;;2.70;;
67156;SDS011;54086;50.126;8.710;2023-05-14T12:13:26;6.35;;;2.70;;
67156;SDS011;54086;50.126;8.710;2023-05-14T12:15:57;6.20;;;2.30;;
67156;SDS011;54086;50.126;8.710;2023-05-14T12:18:24;5.93;;;2.63;;
67156;SDS011;54086;50.126;8.710;2023-05-14T12:20:51;5.95;;;2.67;;
67156;SDS011;54086;50.126;8.710;2023-05-14T12:23:26;5.80;;;2.90;;
67156;SDS011;54086;50.126;8.710;2023-05-14T12:25:54;5.60;;;2.90;;
67156;SDS011;54086;50.126;8.710;2023-05-14T12:28:21;5.77;;;2.57;;
67156;SDS011;54086;50.126;8.710;2023-05-14T12:30:47;7.80;;;2.60;;
67156;SDS011;54086;50.126;8.710;2023-05-14T12:33:19;5.18;;;2.40;;
67156;SDS011;54086;50.126;8.710;2023-05-14T12:35:47;7.13;;;2.80;;
67156;SDS011;54086;50.126;8.710;2023-05-14T12:38:12;5.72;;;2.33;;
67156;SDS011;54086;50.126;8.710;2023-05-14T12:40:37;6.23;;;3.13;;
67156;SDS011;54086;50.126;8.710;2023-05-14T12:43:03;6.30;;;3.37;;
67156;SDS011;54086;50.126;8.710;2023-05-14T12:45:29;5.65;;;2.67;;
67156;SDS011;54086;50.126;8.710;2023-05-14T12:47:54;6.13;;;2.70;;
67156;SDS011;54086;50.126;8.710;2023-05-14T12:50:20;6.57;;;3.38;;
67156;SDS011;54086;50.126;8.710;2023-05-14T12:52:45;4.93;;;2.20;;
67156;SDS011;54086;50.126;8.710;2023-05-14T12:55:11;6.25;;;2.90;;
67156;SDS011;54086;50.126;8.710;2023-05-14T12:57:37;6.47;;;3.00;;
67156;SDS011;54086;50.126;8.710;2023-05-14T13:00:03;6.30;;;2.83;;
67156;SDS011;54086;50.126;8.710;2023-05-14T13:02:32;5.80;;;2.72;;
67156;SDS011;54086;50.126;8.710;2023-05-14T13:04:58;6.20;;;2.90;;
67156;SDS011;54086;50.126;8.710;2023-05-14T13:07:26;6.53;;;3.23;;
67156;SDS011;54086;50.126;8.710;2023-05-14T13:09:54;5.78;;;2.80;;
67156;SDS011;54086;50.126;8.710;2023-05-14T13:12:21;5.82;;;2.50;;
67156;SDS011;54086;50.126;8.710;2023-05-14T13:14:47;5.93;;;3.00;;
67156;SDS011;54086;50.126;8.710;2023-05-14T13:17:13;5.53;;;2.80;;
67156;SDS011;54086;50.126;8.710;2023-05-14T13:19:39;5.40;;;2.78;;
67156;SDS011;54086;50.126;8.710;2023-05-14T13:22:04;6.00;;;3.00;;
67156;SDS011;54086;50.126;8.710;2023-05-14T13:24:30;4.75;;;2.53;;
67156;SDS011;54086;50.126;8.710;2023-05-14T13:26:55;7.10;;;2.60;;
67156;SDS011;54086;50.126;8.710;2023-05-14T13:29:21;5.47;;;2.80;;
67156;SDS011;54086;50.126;8.710;2023-05-14T13:31:46;5.40;;;2.50;;
67156;SDS011;54086;50.126;8.710;2023-05-14T13:34:13;5.60;;;2.73;;
67156;SDS011;54086;50.126;8.710;2023-05-14T13:36:38;5.90;;;3.00;;
67156;SDS011;54086;50.126;8.710;2023-05-14T13:39:06;5.38;;;2.60;;
67156;SDS011;54086;50.126;8.710;2023-05-14T13:41:31;6.73;;;2.87;;
67156;SDS011;54086;50.126;8.710;2023-05-14T13:44:01;9.00;;;2.85;;
67156;SDS011;54086;50.126;8.710;2023-05-14T13:46:30;4.82;;;2.33;;
67156;SDS011;54086;50.126;8.710;2023-05-14T13:49:01;4.88;;;2.50;;
67156;SDS011;54086;50.126;8.710;2023-05-14T13:51:27;5.70;;;2.60;;
67156;SDS011;54086;50.126;8.710;2023-05-14T13:53:52;4.90;;;2.00;;
67156;SDS011;54086;50.126;8.710;2023-05-14T13:56:18;5.10;;;2.40;;
67156;SDS011;54086;50.126;8.710;2023-05-14T13:58:49;6.53;;;2.43;;
67156;SDS011;54086;50.126;8.710;2023-05-14T14:01:23;5.40;;;2.30;;
67156;SDS011;54086;50.126;8.710;2023-05-14T14:03:49;6.00;;;2.47;;
67156;SDS011;54086;50.126;8.710;2023-05-14T14:06:15;5.95;;;2.35;;
67156;SDS011;54086;50.126;8.710;2023-05-14T14:08:41;5.47;;;2.30;;
67156;SDS011;54086;50.126;8.710;2023-05-14T14:11:06;4.80;;;2.20;;
67156;SDS011;54086;50.126;8.710;2023-05-14T14:13:32;4.83;;;2.20;;
67156;SDS011;54086;50.126;8.710;2023-05-14T14:16:00;5.40;;;2.45;;
67156;SDS011;54086;50.126;8.710;2023-05-14T14:18:27;4.93;;;2.40;;
67156;SDS011;54086;50.126;8.710;2023-05-14T14:20:58;4.77;;;2.40;;
67156;SDS011;54086;50.126;8.710;2023-05-14T14:23:26;5.25;;;2.20;;
67156;SDS011;54086;50.126;8.710;2023-05-14T14:25:52;6.22;;;2.28;;
67156;SDS011;54086;50.126;8.710;2023-05-14T14:28:20;4.90;;;2.30;;
67156;SDS011;54086;50.126;8.710;2023-05-14T14:30:45;5.30;;;2.40;;
67156;SDS011;54086;50.126;8.710;2023-05-14T14:33:14;4.93;;;2.20;;
67156;SDS011;54086;50.126;8.710;2023-05-14T14:35:42;4.72;;;2.22;;
67156;SDS011;54086;50.126;8.710;2023-05-14T14:38:08;6.65;;;2.20;;
67156;SDS011;54086;50.126;8.710;2023-05-14T14:40:35;6.07;;;2.20;;
67156;SDS011;54086;50.126;8.710;2023-05-14T14:43:04;5.43;;;2.15;;
67156;SDS011;54086;50.126;8.710;2023-05-14T14:45:30;5.22;;;2.17;;
67156;SDS011;54086;50.126;8.710;2023-05-14T14:50:58;5.07;;;2.37;;
67156;SDS011;54086;50.126;8.710;2023-05-14T14:53:28;4.78;;;2.00;;
67156;SDS011;54086;50.126;8.710;2023-05-14T14:55:53;4.93;;;2.22;;
67156;SDS011;54086;50.126;8.710;2023-05-14T14:58:20;5.68;;;2.15;;